< < Back
Terminal Aerodrome Forecast


Current Version              Previous Versions:   1  2  3  4  5  6  7  8  9  

Terminal Aerodrome Forecast

810
FTUS42 KJAX 301139
TAFJAX
TAF
KJAX 301139Z 3012/0112 VRB03KT 5SM BR SCT250
     FM301400 13010KT P6SM BKN250
     FM301900 13013KT P6SM SCT045 SCT250
     FM010400 15004KT P6SM SCT060 SCT250
     FM010800 VRB02KT P6SM SCT040 SCT250=

Latest METAR

622
SAUS80 KWBC 301300
MTRJAX
METAR KJAX 301256Z 13006KT 10SM FEW010 SCT250 25/22 A2999 RMK AO2 SLP155
T02500222


USA.gov is the U.S. government's official web portal to all federal, state and local government web resources and services.